createdAt,value
2023-07-06T00:00:09.228Z,75.83
2023-07-06T00:03:15.828Z,75.80
2023-07-06T00:06:18.369Z,76.30
2023-07-06T00:09:21.228Z,75.65
2023-07-06T00:12:24.556Z,76.08
2023-07-06T00:15:28.608Z,76.24
2023-07-06T00:18:30.899Z,76.89
2023-07-06T00:21:33.460Z,75.74
2023-07-06T00:24:35.564Z,76.33
2023-07-06T00:27:38.825Z,75.23
2023-07-06T00:30:47.879Z,75.69
2023-07-06T00:33:53.404Z,75.27
2023-07-06T00:36:55.426Z,76.43
2023-07-06T00:39:57.394Z,74.63
2023-07-06T00:43:00.861Z,74.30
2023-07-06T00:46:10.740Z,75.41
2023-07-06T00:49:18.279Z,74.98
2023-07-06T00:52:21.882Z,75.12
2023-07-06T00:55:30.912Z,76.36
2023-07-06T00:58:38.299Z,76.40
2023-07-06T01:01:43.234Z,79.15
2023-07-06T01:04:45.630Z,77.93
2023-07-06T01:07:49.819Z,78.98
2023-07-06T01:10:54.037Z,79.45
2023-07-06T01:13:58.254Z,78.19
2023-07-06T01:17:07.233Z,78.41
2023-07-06T01:20:22.319Z,79.03
2023-07-06T01:23:46.342Z,79.43
2023-07-06T01:27:08.498Z,79.78
2023-07-06T01:30:31.166Z,79.99
2023-07-06T01:33:41.444Z,80.86
2023-07-06T01:36:48.081Z,81.05
2023-07-06T01:39:51.959Z,80.87
2023-07-06T01:42:53.842Z,81.70
2023-07-06T01:45:56.560Z,81.25
2023-07-06T01:48:59.960Z,81.59
2023-07-06T01:52:10.389Z,80.87
2023-07-06T01:55:22.370Z,77.96
2023-07-06T01:58:33.470Z,77.27
2023-07-06T02:01:42.314Z,77.08
2023-07-06T02:04:45.801Z,77.17
2023-07-06T02:07:50.675Z,77.46
2023-07-06T02:10:54.145Z,77.70
2023-07-06T02:13:56.118Z,77.52
2023-07-06T02:16:58.235Z,78.34
2023-07-06T02:20:01.643Z,78.41
2023-07-06T02:23:04.165Z,78.72
2023-07-06T02:26:06.043Z,79.71
2023-07-06T02:29:07.879Z,80.47
2023-07-06T02:32:11.062Z,80.76
2023-07-06T02:35:14.411Z,80.90
2023-07-06T02:38:19.295Z,81.14
2023-07-06T02:41:21.099Z,80.93
2023-07-06T02:44:23.189Z,80.56
2023-07-06T02:47:25.253Z,80.38
2023-07-06T02:50:28.971Z,79.40
2023-07-06T02:53:31.089Z,79.27
2023-07-06T02:56:33.544Z,79.23
2023-07-06T02:59:36.130Z,79.71
2023-07-06T03:02:37.997Z,79.67
2023-07-06T03:05:44.974Z,79.90
2023-07-06T03:08:48.768Z,80.06
2023-07-06T03:11:51.122Z,80.21
2023-07-06T03:14:52.915Z,80.86
2023-07-06T03:17:54.796Z,80.88
2023-07-06T03:20:58.451Z,81.41
2023-07-06T03:24:00.351Z,81.62
2023-07-06T03:27:03.453Z,81.89
2023-07-06T03:30:08.605Z,81.79
2023-07-06T03:33:10.631Z,81.64
2023-07-06T03:36:14.400Z,80.83
2023-07-06T03:39:16.448Z,81.07
2023-07-06T03:42:18.941Z,80.64
2023-07-06T03:45:21.056Z,80.77
2023-07-06T03:48:23.250Z,81.19
2023-07-06T03:51:26.493Z,81.18
2023-07-06T03:54:28.899Z,81.17
2023-07-06T03:57:31.590Z,80.78
2023-07-06T04:00:35.358Z,80.03
2023-07-06T04:03:38.048Z,79.70
2023-07-06T04:06:42.417Z,78.57
2023-07-06T04:09:45.707Z,78.53
2023-07-06T04:12:48.130Z,77.88
2023-07-06T04:15:50.579Z,77.08
2023-07-06T04:18:53.094Z,77.22
2023-07-06T04:21:58.288Z,76.68
2023-07-06T04:25:00.117Z,77.21
2023-07-06T04:28:05.164Z,76.58
2023-07-06T04:31:06.913Z,76.57
2023-07-06T04:34:08.882Z,75.80
2023-07-06T04:37:12.066Z,75.41
2023-07-06T04:40:18.985Z,75.70
2023-07-06T04:43:22.078Z,75.27
2023-07-06T04:46:23.994Z,75.52
2023-07-06T04:49:27.007Z,75.60
2023-07-06T04:52:31.073Z,75.67
2023-07-06T04:55:33.051Z,74.92
2023-07-06T04:58:35.584Z,75.18
2023-07-06T05:01:37.420Z,75.03
2023-07-06T05:04:41.667Z,75.32
2023-07-06T05:07:44.883Z,75.37
2023-07-06T05:10:52.476Z,74.85
2023-07-06T05:13:54.643Z,75.69
2023-07-06T05:16:56.587Z,75.73
2023-07-06T05:19:59.357Z,76.26
2023-07-06T05:23:04.917Z,76.18
2023-07-06T05:26:07.180Z,75.92
2023-07-06T05:29:09.711Z,75.65
2023-07-06T05:32:11.575Z,75.61
2023-07-06T05:35:14.651Z,76.04
2023-07-06T05:38:17.935Z,76.30
2023-07-06T05:41:19.802Z,76.12
2023-07-06T05:44:21.785Z,77.21
2023-07-06T05:47:23.765Z,78.88
2023-07-06T05:50:25.803Z,81.68
2023-07-06T05:53:29.156Z,83.68
2023-07-06T05:56:32.315Z,85.54
2023-07-06T05:59:34.377Z,87.84
2023-07-06T06:02:37.249Z,89.85
2023-07-06T06:05:41.428Z,96.54
2023-07-06T06:08:45.099Z,97.05
2023-07-06T06:11:48.061Z,98.98
2023-07-06T06:14:52.014Z,96.96
2023-07-06T06:17:54.269Z,95.35
2023-07-06T06:20:59.845Z,95.12
2023-07-06T06:24:09.534Z,95.51
2023-07-06T06:27:12.435Z,96.12
2023-07-06T06:30:16.105Z,99.08
2023-07-06T06:33:19.182Z,95.06
2023-07-06T06:36:23.120Z,93.69
2023-07-06T06:39:26.428Z,92.24
2023-07-06T06:42:29.974Z,90.50
2023-07-06T06:45:33.209Z,90.53
2023-07-06T06:48:35.292Z,90.66
2023-07-06T06:51:37.288Z,89.75
2023-07-06T06:54:41.766Z,90.26
2023-07-06T06:57:44.077Z,87.96
2023-07-06T07:00:46.508Z,86.80
2023-07-06T07:03:48.681Z,88.70
2023-07-06T07:06:51.499Z,85.92
2023-07-06T07:09:55.118Z,86.87
2023-07-06T07:12:58.188Z,85.65
2023-07-06T07:16:00.538Z,82.75
2023-07-06T07:19:05.443Z,81.16
2023-07-06T07:22:08.133Z,80.27
2023-07-06T07:25:11.588Z,82.37
2023-07-06T07:28:17.314Z,82.26
2023-07-06T07:31:20.269Z,82.70
2023-07-06T07:34:22.644Z,83.99
2023-07-06T07:37:24.592Z,83.94
2023-07-06T07:40:28.771Z,84.40
2023-07-06T07:43:35.813Z,82.94
2023-07-06T07:46:38.772Z,80.94
2023-07-06T07:49:42.884Z,79.36
2023-07-06T07:52:45.487Z,80.16
2023-07-06T07:55:48.687Z,78.27
2023-07-06T07:58:50.975Z,77.31
2023-07-06T08:01:53.755Z,77.78
2023-07-06T08:04:58.308Z,77.03
2023-07-06T08:08:01.286Z,75.96
2023-07-06T08:11:06.425Z,73.26
2023-07-06T08:14:12.265Z,71.89
2023-07-06T08:17:15.582Z,72.27
2023-07-06T08:20:51.854Z,72.07
2023-07-06T08:23:48.725Z,69.79
2023-07-06T08:26:52.055Z,70.87
2023-07-06T08:29:54.315Z,70.47
2023-07-06T08:32:56.823Z,73.17
2023-07-06T08:36:02.619Z,67.61
2023-07-06T08:39:07.101Z,67.69
2023-07-06T08:42:11.935Z,66.33
2023-07-06T08:45:18.659Z,68.73
2023-07-06T08:48:26.576Z,67.34
2023-07-06T08:51:36.116Z,69.14
2023-07-06T08:54:44.678Z,69.03
2023-07-06T08:57:48.094Z,69.58
2023-07-06T09:00:50.045Z,66.57
2023-07-06T09:03:57.071Z,66.93
2023-07-06T09:07:01.553Z,66.67
2023-07-06T09:10:23.192Z,66.08
2023-07-06T09:13:29.103Z,66.51
2023-07-06T09:16:35.826Z,63.15
2023-07-06T09:19:40.026Z,63.26
2023-07-06T09:22:42.545Z,62.26
2023-07-06T09:25:46.996Z,63.20
2023-07-06T09:28:53.109Z,63.22
2023-07-06T09:32:10.770Z,64.04
2023-07-06T09:35:21.517Z,62.40
2023-07-06T09:38:25.496Z,63.62
2023-07-06T09:41:30.523Z,64.14
2023-07-06T09:44:33.737Z,62.37
2023-07-06T09:47:36.296Z,62.69
2023-07-06T09:50:44.273Z,62.35
2023-07-06T09:53:50.742Z,61.82
2023-07-06T09:56:52.914Z,64.08
2023-07-06T09:59:56.144Z,63.48
2023-07-06T10:03:02.143Z,62.13
2023-07-06T10:06:18.905Z,62.48
2023-07-06T10:09:26.805Z,64.99
2023-07-06T10:12:39.691Z,66.61
2023-07-06T10:15:51.632Z,64.71
2023-07-06T10:19:00.981Z,64.78
2023-07-06T10:22:12.306Z,66.45
2023-07-06T10:25:20.524Z,66.15
2023-07-06T10:28:27.496Z,62.58
2023-07-06T10:31:35.895Z,61.76
2023-07-06T10:34:42.498Z,61.08
2023-07-06T10:37:45.117Z,63.85
2023-07-06T10:40:51.388Z,62.01
2023-07-06T10:43:57.394Z,58.22
2023-07-06T10:47:00.663Z,56.44
2023-07-06T10:50:24.992Z,58.08
2023-07-06T10:53:36.008Z,57.15
2023-07-06T10:56:42.440Z,55.53
2023-07-06T10:59:49.533Z,57.89
2023-07-06T11:02:57.512Z,55.90
2023-07-06T11:06:07.770Z,54.96
2023-07-06T11:09:15.516Z,57.17
2023-07-06T11:12:20.816Z,55.04
2023-07-06T11:15:26.588Z,53.27
2023-07-06T11:18:36.550Z,54.50
2023-07-06T11:21:44.545Z,54.47
2023-07-06T11:24:50.844Z,53.57
2023-07-06T11:27:58.973Z,50.17
2023-07-06T11:31:09.494Z,48.54
2023-07-06T11:34:32.567Z,51.13
2023-07-06T11:37:58.495Z,52.74
2023-07-06T11:41:13.874Z,51.90
2023-07-06T11:44:47.254Z,51.49
2023-07-06T11:48:05.328Z,51.21
2023-07-06T11:51:10.946Z,50.29
2023-07-06T11:54:31.132Z,50.61
2023-07-06T11:57:46.659Z,49.87
2023-07-06T12:00:55.574Z,49.91
2023-07-06T12:03:59.077Z,49.06
2023-07-06T12:07:24.170Z,47.35
2023-07-06T12:10:26.478Z,48.23
2023-07-06T12:13:30.804Z,50.95
2023-07-06T12:16:40.396Z,47.37
2023-07-06T12:19:43.178Z,46.32
2023-07-06T12:22:54.269Z,47.75
2023-07-06T12:25:57.199Z,46.87
2023-07-06T12:29:01.388Z,45.29
2023-07-06T12:32:09.050Z,46.16
2023-07-06T12:35:13.148Z,44.09
2023-07-06T12:38:20.699Z,45.06
2023-07-06T12:41:22.878Z,44.52
2023-07-06T12:44:28.329Z,43.14
2023-07-06T12:47:34.935Z,43.99
2023-07-06T12:50:41.072Z,39.56
2023-07-06T12:53:45.055Z,40.32
2023-07-06T12:56:57.188Z,38.79
2023-07-06T13:00:11.771Z,37.93
2023-07-06T13:03:14.692Z,36.32
2023-07-06T13:06:17.510Z,38.72
2023-07-06T13:09:22.913Z,37.65
2023-07-06T13:12:32.871Z,38.37
2023-07-06T13:15:39.507Z,38.40
2023-07-06T13:18:42.227Z,41.12
2023-07-06T13:21:44.228Z,37.86
2023-07-06T13:24:48.505Z,40.36
2023-07-06T13:27:50.935Z,41.80
2023-07-06T13:30:54.295Z,40.68
2023-07-06T13:33:57.827Z,41.12
2023-07-06T13:36:59.771Z,40.86
2023-07-06T13:40:05.631Z,39.36
2023-07-06T13:43:14.601Z,39.86
2023-07-06T13:46:18.042Z,41.05
2023-07-06T13:49:20.586Z,41.94
2023-07-06T13:52:22.481Z,42.57
2023-07-06T13:55:29.180Z,44.45
2023-07-06T13:58:31.584Z,44.51
2023-07-06T14:01:33.473Z,41.94
2023-07-06T14:04:35.670Z,41.29
2023-07-06T14:07:37.541Z,42.30
2023-07-06T14:10:40.943Z,43.12
2023-07-06T14:13:45.472Z,43.10
2023-07-06T14:16:48.978Z,41.82
2023-07-06T14:20:02.699Z,43.20
2023-07-06T14:23:06.926Z,43.78
2023-07-06T14:26:10.590Z,42.19
2023-07-06T14:29:12.883Z,41.87
2023-07-06T14:32:16.668Z,43.39
2023-07-06T14:35:19.850Z,48.03
2023-07-06T14:38:22.555Z,55.23
2023-07-06T14:41:26.852Z,56.00
2023-07-06T14:44:29.488Z,55.51
2023-07-06T14:47:31.615Z,56.23
2023-07-06T14:50:35.204Z,55.88
2023-07-06T14:53:38.237Z,55.63
2023-07-06T14:56:41.551Z,55.56
2023-07-06T14:59:44.745Z,57.29
2023-07-06T15:02:50.289Z,55.96
2023-07-06T15:05:54.245Z,55.73
2023-07-06T15:08:56.406Z,55.31
2023-07-06T15:12:00.006Z,54.31
2023-07-06T15:15:01.979Z,55.22
2023-07-06T15:18:04.638Z,55.14
2023-07-06T15:21:08.186Z,56.31
2023-07-06T15:24:10.716Z,58.44
2023-07-06T15:27:15.020Z,60.24
2023-07-06T15:30:17.547Z,60.25
2023-07-06T15:33:19.386Z,58.88
2023-07-06T15:36:21.954Z,58.51
2023-07-06T15:39:25.095Z,58.77
2023-07-06T15:42:28.704Z,57.08
2023-07-06T15:45:30.749Z,58.63
2023-07-06T15:48:33.420Z,60.46
2023-07-06T15:51:35.320Z,60.62
2023-07-06T15:54:37.265Z,61.94
2023-07-06T15:57:40.593Z,59.83
2023-07-06T16:00:42.546Z,62.10
2023-07-06T16:03:45.363Z,60.61
2023-07-06T16:06:47.327Z,62.12
2023-07-06T16:09:49.234Z,62.52
2023-07-06T16:12:52.676Z,62.06
2023-07-06T16:15:54.922Z,63.19
2023-07-06T16:18:57.258Z,62.63
2023-07-06T16:21:59.183Z,58.27
2023-07-06T16:25:01.271Z,57.82
2023-07-06T16:28:04.950Z,56.76
2023-07-06T16:31:07.693Z,57.25
2023-07-06T16:34:09.846Z,56.99
2023-07-06T16:37:11.714Z,57.66
2023-07-06T16:40:14.257Z,59.38
2023-07-06T16:43:17.837Z,62.09
2023-07-06T16:46:20.112Z,62.49
2023-07-06T16:49:21.980Z,62.42
2023-07-06T16:52:24.329Z,61.48
2023-07-06T16:55:27.202Z,61.80
2023-07-06T16:58:31.444Z,62.86
2023-07-06T17:01:35.307Z,61.75
2023-07-06T17:04:37.313Z,59.72
2023-07-06T17:07:39.169Z,60.90
2023-07-06T17:10:41.629Z,60.28
2023-07-06T17:13:45.038Z,62.82
2023-07-06T17:16:47.163Z,63.64
2023-07-06T17:19:49.937Z,61.46
2023-07-06T17:22:51.895Z,62.99
2023-07-06T17:25:54.179Z,62.10
2023-07-06T17:28:57.602Z,61.85
2023-07-06T17:31:59.541Z,63.54
2023-07-06T17:35:02.991Z,65.23
2023-07-06T17:38:05.855Z,64.11
2023-07-06T17:41:09.717Z,64.18
2023-07-06T17:44:14.048Z,66.16
2023-07-06T17:47:16.578Z,68.35
2023-07-06T17:50:19.579Z,67.09
2023-07-06T17:53:22.639Z,65.70
2023-07-06T17:56:25.003Z,66.97
2023-07-06T17:59:30.105Z,68.01
2023-07-06T18:02:32.752Z,68.88
2023-07-06T18:05:35.639Z,70.87
2023-07-06T18:08:38.701Z,70.52
2023-07-06T18:11:41.301Z,71.84
2023-07-06T18:14:45.407Z,73.94
2023-07-06T18:17:49.211Z,73.11
2023-07-06T18:20:51.425Z,74.60
2023-07-06T18:23:55.238Z,74.83
2023-07-06T18:26:57.659Z,75.87
2023-07-06T18:30:01.659Z,75.58
2023-07-06T18:33:07.240Z,76.02
2023-07-06T18:36:09.574Z,76.88
2023-07-06T18:39:12.142Z,75.75
2023-07-06T18:42:14.268Z,76.47
2023-07-06T18:45:28.765Z,77.49
2023-07-06T18:48:39.523Z,78.36
2023-07-06T18:51:42.141Z,78.81
2023-07-06T18:54:44.219Z,79.32
2023-07-06T18:57:46.701Z,78.42
2023-07-06T19:00:50.421Z,78.57
2023-07-06T19:03:52.877Z,77.24
2023-07-06T19:06:55.662Z,77.87
2023-07-06T19:09:58.271Z,78.05
2023-07-06T19:13:01.979Z,76.95
2023-07-06T19:16:06.364Z,77.68
2023-07-06T19:19:09.043Z,78.83
2023-07-06T19:22:11.646Z,80.48
2023-07-06T19:25:14.029Z,77.62
2023-07-06T19:28:16.178Z,76.41
2023-07-06T19:31:20.704Z,76.24
2023-07-06T19:34:23.436Z,75.86
2023-07-06T19:37:26.868Z,79.36
2023-07-06T19:40:29.614Z,78.98
2023-07-06T19:43:32.464Z,79.81
2023-07-06T19:46:36.442Z,79.42
2023-07-06T19:49:39.146Z,79.94
2023-07-06T19:52:42.590Z,80.83
2023-07-06T19:55:45.338Z,80.31
2023-07-06T19:58:47.438Z,78.28
2023-07-06T20:01:52.127Z,77.12
2023-07-06T20:05:00.287Z,76.45
2023-07-06T20:08:03.607Z,76.76
2023-07-06T20:11:06.353Z,77.65
2023-07-06T20:14:09.697Z,78.24
2023-07-06T20:17:15.482Z,77.87
2023-07-06T20:20:17.925Z,79.02
2023-07-06T20:23:21.128Z,79.20
2023-07-06T20:26:23.697Z,79.13
2023-07-06T20:29:26.383Z,78.50
2023-07-06T20:32:30.264Z,78.34
2023-07-06T20:35:32.827Z,77.71
2023-07-06T20:38:36.565Z,77.96
2023-07-06T20:41:39.031Z,77.85
2023-07-06T20:44:41.616Z,78.77
2023-07-06T20:47:45.045Z,79.16
2023-07-06T20:50:47.588Z,77.56
2023-07-06T20:53:52.123Z,78.53
2023-07-06T20:56:54.340Z,78.78
2023-07-06T20:59:56.618Z,79.42
2023-07-06T21:03:01.121Z,79.79
2023-07-06T21:06:04.229Z,79.82
2023-07-06T21:09:06.117Z,81.07
2023-07-06T21:12:08.626Z,81.13
2023-07-06T21:15:11.125Z,80.16
2023-07-06T21:18:14.395Z,80.88
2023-07-06T21:21:16.292Z,79.67
2023-07-06T21:24:19.494Z,79.95
2023-07-06T21:27:21.422Z,80.64
2023-07-06T21:30:25.499Z,78.59
2023-07-06T21:33:28.731Z,79.15
2023-07-06T21:36:32.470Z,78.33
2023-07-06T21:39:34.396Z,79.43
2023-07-06T21:42:36.477Z,79.04
2023-07-06T21:45:38.472Z,79.29
2023-07-06T21:48:43.939Z,79.57
2023-07-06T21:51:46.472Z,79.96
2023-07-06T21:54:48.441Z,78.70
2023-07-06T21:57:50.338Z,80.79
2023-07-06T22:00:52.598Z,79.38
2023-07-06T22:03:56.828Z,80.73
2023-07-06T22:06:58.781Z,80.77
2023-07-06T22:10:01.395Z,79.61
2023-07-06T22:13:03.704Z,80.04
2023-07-06T22:16:05.775Z,79.55
2023-07-06T22:19:10.079Z,79.72
2023-07-06T22:22:11.979Z,80.32
2023-07-06T22:25:14.867Z,79.41
2023-07-06T22:28:17.743Z,79.55
2023-07-06T22:31:19.641Z,80.82
2023-07-06T22:34:23.835Z,80.85
2023-07-06T22:37:25.981Z,81.07
2023-07-06T22:40:31.149Z,81.81
2023-07-06T22:43:33.060Z,81.63
2023-07-06T22:46:35.096Z,82.16
2023-07-06T22:49:40.568Z,82.66
2023-07-06T22:52:42.441Z,82.80
2023-07-06T22:55:44.660Z,83.25
2023-07-06T22:58:46.629Z,83.79
2023-07-06T23:01:49.404Z,83.83
2023-07-06T23:04:52.759Z,84.80
2023-07-06T23:07:57.108Z,84.49
2023-07-06T23:10:59.502Z,84.52
2023-07-06T23:14:02.314Z,84.56
2023-07-06T23:17:04.749Z,84.25
2023-07-06T23:20:09.565Z,83.80
2023-07-06T23:23:12.320Z,84.28
2023-07-06T23:26:16.528Z,84.38
2023-07-06T23:29:18.631Z,84.29
2023-07-06T23:32:22.892Z,84.16
2023-07-06T23:35:26.225Z,84.80
2023-07-06T23:38:28.068Z,83.97
2023-07-06T23:41:30.641Z,84.22
2023-07-06T23:44:32.545Z,84.62
2023-07-06T23:47:35.533Z,84.78
2023-07-06T23:50:38.821Z,84.23
2023-07-06T23:53:41.260Z,84.36
2023-07-06T23:56:43.128Z,84.81
2023-07-06T23:59:45.351Z,84.76
